Time;durP1;ratioP1;P1;durP2;ratioP2;P2;SDS_P1;SDS_P2;PMS_P1;PMS_P2;Temp;Humidity;BMP_temperature;BMP_pressure;BME280_temperature;BME280_humidity;BME280_pressure;Samples;Min_cycle;Max_cycle;Signal;HPM_P1;HPM_P2
2022/03/27 00:01:59;;;;;;;12.55;6.40;;;8.60;54.60;;;;;;4985337;28;20038;-78
2022/03/27 00:04:25;;;;;;;8.18;4.93;;;8.50;54.70;;;;;;4984409;28;20092;-78
2022/03/27 00:06:50;;;;;;;10.35;4.88;;;8.50;54.70;;;;;;4987622;28;20074;-77
2022/03/27 00:09:16;;;;;;;9.95;4.63;;;8.50;54.80;;;;;;4965438;28;20088;-78
2022/03/27 00:11:41;;;;;;;8.27;4.70;;;8.40;54.90;;;;;;4980903;28;20143;-78
2022/03/27 00:14:07;;;;;;;8.30;5.38;;;8.40;55.00;;;;;;4969876;28;20058;-78
2022/03/27 00:16:33;;;;;;;11.05;4.90;;;8.40;55.00;;;;;;4983562;28;20038;-78
2022/03/27 00:18:58;;;;;;;10.05;5.05;;;8.40;55.20;;;;;;4978357;28;20054;-78
2022/03/27 00:21:24;;;;;;;7.88;4.72;;;8.30;55.20;;;;;;4979179;28;20738;-78
2022/03/27 00:23:50;;;;;;;15.32;6.00;;;8.30;55.30;;;;;;4951913;28;20038;-78
2022/03/27 00:26:16;;;;;;;8.85;5.43;;;8.30;55.40;;;;;;4976381;28;20496;-78
2022/03/27 00:28:42;;;;;;;10.25;5.45;;;8.30;55.50;;;;;;4977706;28;20038;-78
2022/03/27 00:31:08;;;;;;;9.50;5.70;;;8.20;56.10;;;;;;4970599;28;20054;-78
2022/03/27 00:33:35;;;;;;;10.45;5.75;;;8.20;55.50;;;;;;4961272;28;20034;-78
2022/03/27 00:36:01;;;;;;;9.13;5.15;;;8.20;55.80;;;;;;4967496;28;20476;-78
2022/03/27 00:38:27;;;;;;;10.85;6.13;;;8.10;55.80;;;;;;4968337;28;20034;-78
2022/03/27 00:40:52;;;;;;;9.60;4.97;;;8.10;55.80;;;;;;4987767;28;20057;-78
2022/03/27 00:43:19;;;;;;;9.43;5.90;;;8.10;55.90;;;;;;4982173;28;20045;-78
2022/03/27 00:45:45;;;;;;;9.80;5.93;;;8.00;55.90;;;;;;4971361;28;20488;-78
2022/03/27 00:48:11;;;;;;;8.65;5.90;;;8.00;56.00;;;;;;4973056;28;20081;-78
2022/03/27 00:50:37;;;;;;;8.75;5.60;;;8.00;56.10;;;;;;4961786;28;20065;-77
2022/03/27 00:53:02;;;;;;;9.15;5.13;;;7.90;56.10;;;;;;4963505;28;20038;-78
2022/03/27 00:55:28;;;;;;;8.57;5.35;;;7.90;56.20;;;;;;4964527;28;20034;-78
2022/03/27 00:57:55;;;;;;;8.20;4.85;;;7.90;56.30;;;;;;4972344;28;20030;-78
2022/03/27 01:00:41;;;;;;;8.98;4.95;;;7.80;56.40;;;;;;4984250;28;20106;-78
2022/03/27 01:03:07;;;;;;;8.13;5.03;;;7.70;56.80;;;;;;4974169;28;20049;-78
2022/03/27 01:05:33;;;;;;;8.63;5.50;;;7.60;56.50;;;;;;4977539;28;20158;-77
2022/03/27 01:08:04;;;;;;;8.43;5.53;;;7.50;56.60;;;;;;4965057;28;20109;-77
2022/03/27 01:10:30;;;;;;;6.25;4.88;;;7.50;56.80;;;;;;4980688;28;20065;-77
2022/03/27 01:12:56;;;;;;;7.57;5.35;;;7.50;56.90;;;;;;4973341;28;20042;-78
2022/03/27 01:15:24;;;;;;;10.20;5.38;;;7.50;57.00;;;;;;4976141;28;20042;-78
2022/03/27 01:17:50;;;;;;;7.95;4.72;;;7.40;57.10;;;;;;4968056;28;20046;-78
2022/03/27 01:20:35;;;;;;;9.40;5.75;;;7.40;57.10;;;;;;4952850;28;20049;-78
2022/03/27 01:23:01;;;;;;;11.23;5.20;;;7.40;57.60;;;;;;4965409;28;20074;-78
2022/03/27 01:25:26;;;;;;;7.95;4.97;;;7.40;57.30;;;;;;4979576;28;20058;-78
2022/03/27 01:27:52;;;;;;;9.30;4.90;;;7.30;57.30;;;;;;4975107;28;20030;-78
2022/03/27 01:30:17;;;;;;;8.30;4.90;;;7.30;57.40;;;;;;4977078;28;20451;-78
2022/03/27 01:32:43;;;;;;;9.32;4.88;;;7.30;57.50;;;;;;4983101;28;20049;-77
2022/03/27 01:35:10;;;;;;;8.77;4.88;;;7.30;57.60;;;;;;4975609;28;20038;-77
2022/03/27 01:37:36;;;;;;;11.32;5.35;;;7.20;57.60;;;;;;4982159;28;20054;-77
2022/03/27 01:40:02;;;;;;;7.45;4.97;;;7.20;57.70;;;;;;4977097;28;20065;-78
2022/03/27 01:42:27;;;;;;;8.55;4.70;;;7.10;57.70;;;;;;4950624;28;20045;-78
2022/03/27 01:44:53;;;;;;;8.35;4.75;;;7.10;57.80;;;;;;4976069;28;20028;-78
2022/03/27 01:47:19;;;;;;;7.57;5.20;;;7.10;57.90;;;;;;4983545;28;20034;-78
2022/03/27 01:49:44;;;;;;;7.15;4.65;;;7.10;58.10;;;;;;4962185;28;20129;-76
2022/03/27 01:52:10;;;;;;;9.77;5.15;;;7.00;58.10;;;;;;4978652;28;20112;-78
2022/03/27 01:54:36;;;;;;;8.20;5.07;;;7.00;58.20;;;;;;4966684;28;20134;-77
2022/03/27 01:57:01;;;;;;;6.65;4.20;;;7.00;58.30;;;;;;4981567;28;20045;-77
2022/03/27 01:59:27;;;;;;;12.00;6.00;;;7.00;58.30;;;;;;4985013;28;20725;-78
2022/03/27 02:01:53;;;;;;;10.30;5.53;;;6.90;58.40;;;;;;4982947;28;20034;-78
2022/03/27 02:04:18;;;;;;;7.22;5.38;;;6.90;58.50;;;;;;4965076;28;20038;-78
2022/03/27 02:06:44;;;;;;;6.70;4.68;;;6.90;58.70;;;;;;4970167;28;20050;-77
2022/03/27 02:09:12;;;;;;;10.98;5.70;;;6.80;58.70;;;;;;4973462;28;20053;-77
2022/03/27 02:11:39;;;;;;;7.60;5.35;;;6.80;58.60;;;;;;4975228;28;20034;-78
2022/03/27 02:14:04;;;;;;;8.05;4.75;;;6.80;58.70;;;;;;4960572;28;20070;-78
2022/03/27 02:16:30;;;;;;;10.70;5.28;;;6.80;58.80;;;;;;4967749;28;20031;-78
2022/03/27 02:18:55;;;;;;;9.80;5.40;;;6.80;58.90;;;;;;4977638;28;20177;-77
2022/03/27 02:21:21;;;;;;;10.98;5.40;;;6.80;59.00;;;;;;4986271;28;20080;-77
2022/03/27 02:23:46;;;;;;;7.57;5.68;;;6.80;59.00;;;;;;4971623;28;20545;-78
2022/03/27 02:26:12;;;;;;;9.68;5.30;;;6.80;59.10;;;;;;4961987;28;20030;-78
2022/03/27 02:28:39;;;;;;;8.25;5.35;;;6.70;59.00;;;;;;4968789;28;20027;-77
2022/03/27 02:31:04;;;;;;;10.43;5.00;;;6.70;59.10;;;;;;4968208;28;20560;-77
2022/03/27 02:33:30;;;;;;;10.45;5.03;;;6.70;59.10;;;;;;4948125;28;20039;-77
2022/03/27 02:35:55;;;;;;;9.55;5.47;;;6.70;59.30;;;;;;4982045;28;20082;-77
2022/03/27 02:38:21;;;;;;;11.23;5.43;;;6.60;59.30;;;;;;4985796;28;20548;-78
2022/03/27 02:40:47;;;;;;;10.02;5.40;;;6.60;59.40;;;;;;4977539;28;20092;-78
2022/03/27 02:43:13;;;;;;;11.30;5.93;;;6.60;59.50;;;;;;4971872;28;20161;-78
2022/03/27 02:45:38;;;;;;;11.02;4.72;;;6.50;59.50;;;;;;4974840;28;20574;-78
2022/03/27 02:48:04;;;;;;;9.18;5.78;;;6.50;59.70;;;;;;4962886;28;20524;-77
2022/03/27 02:50:30;;;;;;;8.57;5.13;;;6.50;59.70;;;;;;4980798;28;20101;-77
2022/03/27 02:52:56;;;;;;;9.63;5.28;;;6.50;59.80;;;;;;4982015;28;20038;-78
2022/03/27 02:55:23;;;;;;;13.80;6.72;;;6.50;59.90;;;;;;4983148;28;20034;-77
2022/03/27 02:57:49;;;;;;;10.63;5.63;;;6.50;59.90;;;;;;4974838;28;20034;-77
2022/03/27 03:00:15;;;;;;;9.15;5.70;;;6.50;59.90;;;;;;4978796;28;20073;-77
2022/03/27 03:02:41;;;;;;;9.63;5.38;;;6.50;60.00;;;;;;4952812;28;20508;-77
2022/03/27 03:05:08;;;;;;;8.32;5.18;;;6.40;60.00;;;;;;4974837;28;20054;-77
2022/03/27 03:07:34;;;;;;;10.50;5.18;;;6.40;60.00;;;;;;4983890;28;20033;-78
2022/03/27 03:10:01;;;;;;;11.10;5.80;;;6.40;60.10;;;;;;4980141;28;20050;-77
2022/03/27 03:12:27;;;;;;;10.95;5.43;;;6.30;60.10;;;;;;4945267;28;20057;-77
2022/03/27 03:14:55;;;;;;;17.08;6.05;;;6.30;60.10;;;;;;4973917;28;20039;-77
2022/03/27 03:17:21;;;;;;;11.27;5.93;;;6.30;60.20;;;;;;4981044;28;20117;-77
2022/03/27 03:19:47;;;;;;;10.13;5.65;;;6.30;60.40;;;;;;4960627;28;20046;-78
2022/03/27 03:22:12;;;;;;;11.43;6.38;;;6.20;60.50;;;;;;4986223;28;20030;-77
2022/03/27 03:24:38;;;;;;;10.60;5.78;;;6.30;60.60;;;;;;4971347;28;20430;-78
2022/03/27 03:27:04;;;;;;;10.25;5.65;;;6.20;60.50;;;;;;4973587;28;20046;-78
2022/03/27 03:29:29;;;;;;;13.32;5.82;;;6.10;60.40;;;;;;4983233;28;20046;-78
2022/03/27 03:31:55;;;;;;;11.35;6.00;;;6.10;60.60;;;;;;4974670;28;20121;-78
2022/03/27 03:34:20;;;;;;;12.82;5.32;;;6.00;60.60;;;;;;4984107;28;20038;-78
2022/03/27 03:36:46;;;;;;;9.88;5.82;;;6.00;60.80;;;;;;4978227;28;20046;-78
2022/03/27 03:39:11;;;;;;;9.70;6.10;;;6.00;61.00;;;;;;4968569;28;20053;-78
2022/03/27 03:41:37;;;;;;;9.35;6.38;;;6.00;61.00;;;;;;4983803;28;20031;-77
2022/03/27 03:44:03;;;;;;;8.93;6.00;;;6.00;61.20;;;;;;4976710;28;20042;-77
2022/03/27 03:46:28;;;;;;;11.38;5.50;;;6.00;61.30;;;;;;4990326;28;20100;-77
2022/03/27 03:48:54;;;;;;;9.73;5.88;;;6.00;61.30;;;;;;4975830;28;20038;-78
2022/03/27 03:51:19;;;;;;;11.73;5.88;;;6.00;61.50;;;;;;4966887;28;20037;-77
2022/03/27 03:53:45;;;;;;;12.77;6.22;;;6.00;61.50;;;;;;4984770;28;20041;-77
2022/03/27 03:56:14;;;;;;;7.82;5.57;;;5.90;61.60;;;;;;4968014;28;20129;-78
2022/03/27 03:58:39;;;;;;;10.25;5.85;;;5.90;61.60;;;;;;4967879;28;20133;-78
2022/03/27 04:01:05;;;;;;;9.88;5.65;;;5.90;61.60;;;;;;4963812;28;20045;-78
2022/03/27 04:03:30;;;;;;;8.75;5.32;;;5.80;61.70;;;;;;4962506;28;20113;-78
2022/03/27 04:05:56;;;;;;;8.38;5.68;;;5.70;61.80;;;;;;4967655;28;20039;-78
2022/03/27 04:08:22;;;;;;;10.13;6.05;;;5.70;62.00;;;;;;4981047;28;20048;-78
2022/03/27 04:10:47;;;;;;;7.60;5.43;;;5.60;62.10;;;;;;4970960;28;20061;-78
2022/03/27 04:13:13;;;;;;;11.65;6.00;;;5.60;62.30;;;;;;4982838;28;20095;-78
2022/03/27 04:15:39;;;;;;;12.70;6.07;;;5.60;62.30;;;;;;4976751;28;20038;-78
2022/03/27 04:18:05;;;;;;;11.57;6.20;;;5.60;62.40;;;;;;4962973;28;20499;-79
2022/03/27 04:20:31;;;;;;;8.15;5.70;;;5.60;62.50;;;;;;4984397;28;20046;-78
2022/03/27 04:22:56;;;;;;;8.98;5.45;;;5.60;62.60;;;;;;4987372;28;20145;-79
2022/03/27 04:25:22;;;;;;;14.35;6.50;;;5.60;62.60;;;;;;4982291;28;20035;-78
2022/03/27 04:27:48;;;;;;;10.57;6.10;;;5.60;62.70;;;;;;4974673;28;20042;-78
2022/03/27 04:30:13;;;;;;;9.43;6.38;;;5.60;62.70;;;;;;4981592;28;20049;-78
2022/03/27 04:32:39;;;;;;;12.27;6.57;;;5.60;62.80;;;;;;4969297;28;20051;-79
2022/03/27 04:35:06;;;;;;;12.18;5.80;;;5.60;62.80;;;;;;4977675;28;20043;-79
2022/03/27 04:37:31;;;;;;;8.50;5.65;;;5.60;62.90;;;;;;4959153;28;20579;-79
2022/03/27 04:40:02;;;;;;;13.13;6.38;;;5.60;63.00;;;;;;4970416;28;20038;-78
2022/03/27 04:42:28;;;;;;;14.02;6.10;;;5.60;63.00;;;;;;4976051;28;20084;-79
2022/03/27 04:44:53;;;;;;;10.60;5.50;;;5.60;63.10;;;;;;4950461;28;20058;-79
2022/03/27 04:47:19;;;;;;;9.50;5.90;;;5.60;63.20;;;;;;4967734;28;20058;-78
2022/03/27 04:49:45;;;;;;;10.25;5.60;;;5.60;63.10;;;;;;4962728;28;20026;-78
2022/03/27 04:52:11;;;;;;;13.90;6.38;;;5.50;63.10;;;;;;4967468;28;20521;-79
2022/03/27 04:54:37;;;;;;;11.38;6.38;;;5.50;63.10;;;;;;4969703;28;20029;-78
2022/03/27 04:57:03;;;;;;;9.60;5.70;;;5.50;63.10;;;;;;4977161;28;20404;-78
2022/03/27 04:59:28;;;;;;;10.27;5.28;;;5.50;63.30;;;;;;4953139;28;20042;-78
2022/03/27 05:01:54;;;;;;;11.50;5.97;;;5.40;63.30;;;;;;4967309;28;20030;-78
2022/03/27 05:04:20;;;;;;;12.00;5.90;;;5.40;63.40;;;;;;4981463;28;20106;-78
2022/03/27 05:06:45;;;;;;;10.07;6.00;;;5.40;63.40;;;;;;4971648;28;20034;-78
2022/03/27 05:09:11;;;;;;;11.30;6.00;;;5.40;63.50;;;;;;4972826;28;20053;-79
2022/03/27 05:11:38;;;;;;;10.48;6.13;;;5.40;63.50;;;;;;4969152;28;20046;-78
2022/03/27 05:14:03;;;;;;;9.43;6.00;;;5.40;63.60;;;;;;4964950;28;20055;-78
2022/03/27 05:16:29;;;;;;;15.38;6.70;;;5.40;63.60;;;;;;4980476;28;20113;-78
2022/03/27 05:18:55;;;;;;;15.30;6.90;;;5.40;63.80;;;;;;4976127;28;20102;-77
2022/03/27 05:21:21;;;;;;;10.27;6.40;;;5.40;63.80;;;;;;4986704;28;20034;-78
2022/03/27 05:23:47;;;;;;;9.25;6.05;;;5.40;63.90;;;;;;4970542;28;20034;-77
2022/03/27 05:26:12;;;;;;;11.98;6.28;;;5.30;63.90;;;;;;4994556;28;20038;-78
2022/03/27 05:28:38;;;;;;;9.27;6.28;;;5.30;63.90;;;;;;4955376;28;20043;-78
2022/03/27 05:31:08;;;;;;;9.40;5.90;;;5.30;63.90;;;;;;4956154;28;20045;-77
2022/03/27 05:33:37;;;;;;;12.38;6.13;;;5.30;63.90;;;;;;4958027;28;20057;-77
2022/03/27 05:36:04;;;;;;;10.45;6.40;;;5.30;63.90;;;;;;4966645;28;20049;-78
2022/03/27 05:38:29;;;;;;;10.20;6.28;;;5.30;64.10;;;;;;4955801;28;20038;-77
2022/03/27 05:40:55;;;;;;;10.45;6.80;;;5.30;64.20;;;;;;4975612;28;20464;-78
2022/03/27 05:43:20;;;;;;;11.60;7.18;;;5.30;64.20;;;;;;4970566;28;20618;-77
2022/03/27 05:45:47;;;;;;;10.77;6.63;;;5.30;64.30;;;;;;4963362;28;20689;-78
2022/03/27 05:48:13;;;;;;;10.80;6.05;;;5.20;64.20;;;;;;4971127;28;20129;-77
2022/03/27 05:50:39;;;;;;;10.10;6.45;;;5.20;64.30;;;;;;4986560;28;20069;-78
2022/03/27 05:53:05;;;;;;;10.65;5.90;;;5.20;64.50;;;;;;4966682;28;20635;-78
2022/03/27 05:55:30;;;;;;;10.20;6.30;;;5.20;64.50;;;;;;4944376;28;20632;-77
2022/03/27 05:57:56;;;;;;;10.65;6.70;;;5.20;64.60;;;;;;4986643;28;20477;-78
2022/03/27 06:00:21;;;;;;;11.35;6.95;;;5.20;64.70;;;;;;4981335;28;20093;-78
2022/03/27 06:02:50;;;;;;;18.60;8.60;;;5.30;64.80;;;;;;4969943;28;20080;-78
2022/03/27 06:05:17;;;;;;;14.43;8.85;;;5.30;64.90;;;;;;4979866;28;20038;-78
2022/03/27 06:07:44;;;;;;;12.88;7.70;;;5.30;64.80;;;;;;4965618;28;20058;-77
2022/03/27 06:10:10;;;;;;;20.55;10.82;;;5.40;64.90;;;;;;4985709;28;20412;-77
2022/03/27 06:12:35;;;;;;;13.60;7.70;;;5.40;65.00;;;;;;4985805;28;20488;-77
2022/03/27 06:15:01;;;;;;;12.82;7.65;;;5.40;65.00;;;;;;4973844;28;20039;-78
2022/03/27 06:17:27;;;;;;;14.60;7.50;;;5.50;65.10;;;;;;4970667;28;20034;-77
2022/03/27 06:19:52;;;;;;;13.10;7.85;;;5.50;65.10;;;;;;4980717;28;20133;-77
2022/03/27 06:22:18;;;;;;;13.55;7.95;;;5.50;65.20;;;;;;4981215;28;20049;-77
2022/03/27 06:24:44;;;;;;;16.20;8.10;;;5.60;65.20;;;;;;4973247;28;20035;-78
2022/03/27 06:27:09;;;;;;;13.10;7.93;;;5.60;65.20;;;;;;4987051;28;20050;-77
2022/03/27 06:29:35;;;;;;;16.02;8.07;;;5.60;65.20;;;;;;4986385;28;20038;-78
2022/03/27 06:32:00;;;;;;;12.00;7.25;;;5.70;65.40;;;;;;4985505;28;20043;-77
2022/03/27 06:34:26;;;;;;;14.07;7.72;;;5.70;65.40;;;;;;4976292;28;20027;-78
2022/03/27 06:36:52;;;;;;;11.65;6.82;;;5.80;65.40;;;;;;4959089;28;20033;-78
2022/03/27 06:39:17;;;;;;;11.93;7.30;;;5.90;65.50;;;;;;4968648;28;20034;-78
2022/03/27 06:41:43;;;;;;;12.32;7.40;;;5.90;65.50;;;;;;4970648;28;20026;-78
2022/03/27 06:44:08;;;;;;;11.82;7.32;;;6.00;65.50;;;;;;4977207;28;20077;-79
2022/03/27 06:46:34;;;;;;;11.85;6.78;;;6.00;65.50;;;;;;4974177;28;20026;-78
2022/03/27 06:49:00;;;;;;;17.73;8.13;;;6.10;65.50;;;;;;4965782;28;20045;-78
2022/03/27 06:51:25;;;;;;;15.98;7.85;;;6.20;65.60;;;;;;4961346;28;20106;-77
2022/03/27 06:53:51;;;;;;;16.13;8.55;;;6.30;65.70;;;;;;4975113;28;20042;-77
2022/03/27 06:56:16;;;;;;;14.82;7.90;;;6.30;65.70;;;;;;4982478;28;20038;-78
2022/03/27 06:58:42;;;;;;;14.00;7.10;;;6.40;65.80;;;;;;4977344;28;20037;-77
2022/03/27 07:03:51;;;;;;;13.45;7.95;;;6.60;65.70;;;;;;4972408;28;20029;-78
2022/03/27 07:06:17;;;;;;;15.15;7.53;;;6.70;65.80;;;;;;4962106;28;20031;-78
2022/03/27 07:08:42;;;;;;;14.73;8.10;;;6.80;66.00;;;;;;4972605;28;20093;-78
2022/03/27 07:11:08;;;;;;;12.73;7.43;;;6.90;66.00;;;;;;4983406;28;22379;-77
2022/03/27 07:13:34;;;;;;;13.18;8.10;;;7.00;66.00;;;;;;4969568;28;20042;-78
2022/03/27 07:15:59;;;;;;;13.45;8.27;;;7.10;65.90;;;;;;4968021;28;20047;-78
2022/03/27 07:18:25;;;;;;;12.27;7.90;;;7.20;65.80;;;;;;4974893;28;20582;-78
2022/03/27 07:20:51;;;;;;;13.00;8.95;;;7.30;65.80;;;;;;4987756;28;20034;-78
2022/03/27 07:23:20;;;;;;;14.15;8.27;;;7.40;65.80;;;;;;4980441;28;20046;-77
2022/03/27 07:25:49;;;;;;;16.38;8.23;;;7.50;65.90;;;;;;4985846;28;20034;-77
2022/03/27 07:28:15;;;;;;;13.95;7.82;;;7.60;65.90;;;;;;4967427;28;20133;-78
2022/03/27 07:30:41;;;;;;;13.60;8.52;;;7.80;65.70;;;;;;4983657;28;20129;-77
2022/03/27 07:33:07;;;;;;;13.45;8.20;;;7.90;65.70;;;;;;4982449;28;20416;-78
2022/03/27 07:35:32;;;;;;;11.70;7.82;;;8.10;65.80;;;;;;4980226;28;20051;-78
2022/03/27 07:37:58;;;;;;;12.23;7.95;;;8.20;65.80;;;;;;4976833;28;20045;-77
2022/03/27 07:40:24;;;;;;;15.07;7.82;;;8.40;66.50;;;;;;4972452;28;20052;-77
2022/03/27 07:42:50;;;;;;;11.43;7.95;;;8.60;65.60;;;;;;4969483;28;20640;-78
2022/03/27 07:45:19;;;;;;;12.35;7.40;;;8.80;65.40;;;;;;4972929;28;20096;-78
2022/03/27 07:47:45;;;;;;;15.38;7.65;;;8.90;65.30;;;;;;4963969;28;20070;-78
2022/03/27 07:50:11;;;;;;;14.27;7.72;;;9.10;65.10;;;;;;4969300;28;20401;-77
2022/03/27 07:52:37;;;;;;;10.93;7.18;;;9.30;65.00;;;;;;4966801;28;20047;-78
2022/03/27 07:55:03;;;;;;;13.85;8.23;;;9.50;64.80;;;;;;4964121;28;20065;-77
2022/03/27 07:57:29;;;;;;;13.75;8.48;;;9.70;64.70;;;;;;4979100;28;20129;-77
2022/03/27 07:59:54;;;;;;;11.00;7.50;;;9.90;64.40;;;;;;4973068;28;20117;-78
2022/03/27 08:02:21;;;;;;;11.20;7.95;;;10.00;64.20;;;;;;4963998;28;20392;-77
2022/03/27 08:04:47;;;;;;;13.23;7.57;;;10.20;64.00;;;;;;4977833;28;20034;-78
2022/03/27 08:07:12;;;;;;;10.38;7.35;;;10.40;63.90;;;;;;4972104;28;20487;-77
2022/03/27 08:09:38;;;;;;;14.55;8.02;;;10.60;63.60;;;;;;4973609;28;20054;-78
2022/03/27 08:12:07;;;;;;;14.05;7.95;;;10.80;63.50;;;;;;4960840;28;20034;-78
2022/03/27 08:14:33;;;;;;;14.70;9.50;;;11.00;63.30;;;;;;4943665;28;20402;-77
2022/03/27 08:16:59;;;;;;;16.08;9.02;;;11.30;63.20;;;;;;4966735;28;20027;-77
2022/03/27 08:19:24;;;;;;;12.18;7.68;;;11.50;63.00;;;;;;4979475;28;20037;-78
2022/03/27 08:21:50;;;;;;;13.75;8.73;;;11.70;62.90;;;;;;4976193;28;20059;-78
2022/03/27 08:24:15;;;;;;;13.15;8.23;;;11.90;62.80;;;;;;4951541;28;20121;-78
2022/03/27 08:26:56;;;;;;;15.32;9.15;;;12.10;62.60;;;;;;4955790;28;20472;-78
2022/03/27 08:29:32;;;;;;;13.00;8.20;;;12.40;62.50;;;;;;4973138;28;20096;-78
2022/03/27 08:32:00;;;;;;;11.75;7.55;;;12.70;62.50;;;;;;4949935;28;20125;-78
2022/03/27 08:34:26;;;;;;;13.68;8.07;;;12.90;62.10;;;;;;4966207;28;20083;-78
2022/03/27 08:36:52;;;;;;;15.05;8.38;;;13.10;61.70;;;;;;4974275;28;20427;-78
2022/03/27 08:39:18;;;;;;;14.35;9.52;;;13.40;61.50;;;;;;4980836;28;20693;-79
2022/03/27 08:41:44;;;;;;;15.85;9.15;;;13.60;61.20;;;;;;4981478;28;20042;-78
2022/03/27 08:44:16;;;;;;;18.73;8.48;;;13.80;60.80;;;;;;4953031;28;20045;-78
2022/03/27 08:46:42;;;;;;;17.45;9.85;;;14.10;60.70;;;;;;4965851;28;20066;-78
2022/03/27 08:49:10;;;;;;;14.30;8.25;;;14.20;60.40;;;;;;4963575;28;20508;-78
2022/03/27 08:51:44;;;;;;;15.55;10.07;;;14.50;60.30;;;;;;4982540;28;20042;-78
2022/03/27 08:54:23;;;;;;;13.88;8.73;;;14.70;60.20;;;;;;4981631;28;20030;-78
2022/03/27 08:56:59;;;;;;;17.10;8.63;;;15.00;60.00;;;;;;4977254;28;20039;-79
2022/03/27 08:59:25;;;;;;;14.95;9.93;;;15.20;59.70;;;;;;4977880;28;20042;-78
2022/03/27 09:01:50;;;;;;;16.80;7.75;;;15.50;59.40;;;;;;4971886;28;20119;-78
2022/03/27 09:04:16;;;;;;;14.07;9.15;;;15.70;59.00;;;;;;4972049;28;20117;-79
2022/03/27 09:06:42;;;;;;;14.70;9.43;;;15.90;58.70;;;;;;4984998;28;20090;-79
2022/03/27 09:09:07;;;;;;;16.17;10.55;;;16.20;58.40;;;;;;4987370;28;20038;-79
2022/03/27 09:11:33;;;;;;;15.38;9.85;;;16.50;58.20;;;;;;4967191;28;20038;-79
2022/03/27 09:13:59;;;;;;;14.10;8.45;;;16.70;57.80;;;;;;4981311;28;20039;-79
2022/03/27 09:16:24;;;;;;;18.00;10.57;;;16.90;57.40;;;;;;4988195;28;20030;-79
2022/03/27 09:18:52;;;;;;;14.93;8.48;;;17.20;57.20;;;;;;4958795;28;20051;-79
2022/03/27 09:21:18;;;;;;;14.63;9.00;;;17.40;57.00;;;;;;4967511;28;20026;-79
2022/03/27 09:23:44;;;;;;;17.67;10.32;;;17.70;56.70;;;;;;4970893;28;20131;-79
2022/03/27 09:26:16;;;;;;;16.30;9.50;;;18.00;56.30;;;;;;4975524;28;20639;-79
2022/03/27 09:28:42;;;;;;;13.43;9.00;;;18.20;55.90;;;;;;4951604;28;20099;-80
2022/03/27 09:31:14;;;;;;;16.08;10.18;;;18.40;55.60;;;;;;4963862;28;20030;-79
2022/03/27 09:33:46;;;;;;;13.57;9.43;;;18.60;55.20;;;;;;4976750;28;20052;-78
2022/03/27 09:36:22;;;;;;;20.75;11.25;;;18.90;55.10;;;;;;4985857;28;20125;-79
2022/03/27 09:39:16;;;;;;;17.23;9.77;;;19.10;54.70;;;;;;4982628;28;20188;-79
2022/03/27 09:41:48;;;;;;;15.40;10.25;;;19.30;54.30;;;;;;4956560;28;20042;-79
2022/03/27 09:44:19;;;;;;;17.45;10.38;;;19.60;53.90;;;;;;4980590;28;20046;-79
2022/03/27 09:46:51;;;;;;;20.40;10.23;;;19.80;53.70;;;;;;4972469;28;20036;-78
2022/03/27 09:49:18;;;;;;;20.45;12.15;;;20.00;53.30;;;;;;4970040;28;20333;-79
2022/03/27 09:51:54;;;;;;;17.60;10.80;;;20.30;53.00;;;;;;4970482;28;20853;-79
2022/03/27 09:54:21;;;;;;;15.60;9.10;;;20.50;52.20;;;;;;4975518;28;20035;-79
2022/03/27 09:56:46;;;;;;;18.42;11.48;;;20.70;52.00;;;;;;4950365;28;20027;-80
2022/03/27 09:59:33;;;;;;;13.18;9.27;;;21.00;51.60;;;;;;4979155;28;20635;-78
2022/03/27 10:02:23;;;;;;;16.05;10.15;;;21.20;51.10;;;;;;4971017;28;20034;-79
2022/03/27 10:05:04;;;;;;;14.77;8.60;;;21.30;50.60;;;;;;4981761;28;20034;-80
2022/03/27 10:07:34;;;;;;;19.10;9.95;;;21.50;50.50;;;;;;4981560;28;20390;-78
2022/03/27 10:09:59;;;;;;;16.05;10.32;;;21.70;50.40;;;;;;4964783;28;20077;-79
2022/03/27 10:12:29;;;;;;;18.92;10.18;;;22.10;57.80;;;;;;4962890;28;20096;-80
2022/03/27 10:14:59;;;;;;;12.50;8.57;;;22.10;49.60;;;;;;4963184;28;20114;-80
2022/03/27 10:17:26;;;;;;;12.20;7.32;;;22.30;49.30;;;;;;4972654;28;20038;-79
2022/03/27 10:19:52;;;;;;;13.45;9.05;;;22.70;50.00;;;;;;4994327;28;20049;-80
2022/03/27 10:22:20;;;;;;;14.55;9.93;;;22.90;57.60;;;;;;4968072;28;20038;-79
2022/03/27 10:24:46;;;;;;;13.23;7.68;;;23.10;58.50;;;;;;4970707;28;20065;-80
2022/03/27 10:27:12;;;;;;;12.68;8.60;;;23.30;63.30;;;;;;4963838;28;20042;-80
2022/03/27 10:29:37;;;;;;;13.55;8.98;;;23.40;47.50;;;;;;4973919;28;20123;-80
2022/03/27 10:32:04;;;;;;;18.60;10.43;;;23.50;46.90;;;;;;4989106;28;20451;-80
2022/03/27 10:34:29;;;;;;;15.55;8.63;;;23.60;46.60;;;;;;4966463;28;20412;-80
2022/03/27 10:37:03;;;;;;;15.73;8.90;;;23.70;46.20;;;;;;4959450;28;20037;-80
2022/03/27 10:39:37;;;;;;;13.68;9.77;;;23.80;45.90;;;;;;4961199;28;20050;-79
2022/03/27 10:42:16;;;;;;;17.02;10.20;;;24.00;45.50;;;;;;4970086;28;20114;-80
2022/03/27 10:44:56;;;;;;;16.25;10.93;;;24.10;45.00;;;;;;4968960;28;20097;-79
2022/03/27 10:47:23;;;;;;;14.75;8.90;;;24.20;44.70;;;;;;4983665;28;20058;-80
2022/03/27 10:50:01;;;;;;;12.65;8.05;;;24.30;44.80;;;;;;4973847;28;20211;-80
2022/03/27 10:52:54;;;;;;;13.93;8.70;;;24.50;44.20;;;;;;4985545;28;20049;-80
2022/03/27 10:55:19;;;;;;;15.18;10.00;;;24.60;44.30;;;;;;4981912;28;20042;-80
2022/03/27 10:57:46;;;;;;;10.70;7.75;;;24.80;44.00;;;;;;4986814;28;20033;-80
2022/03/27 11:00:12;;;;;;;11.10;7.20;;;24.90;43.50;;;;;;4984100;28;20167;-80
2022/03/27 11:02:53;;;;;;;10.25;7.63;;;25.10;43.30;;;;;;4991482;28;20482;-79
2022/03/27 11:05:31;;;;;;;9.93;7.53;;;25.30;42.50;;;;;;4997619;28;20038;-81
2022/03/27 11:08:18;;;;;;;11.27;7.65;;;25.50;42.20;;;;;;4985784;28;20277;-81
2022/03/27 11:10:49;;;;;;;10.07;7.07;;;25.70;41.80;;;;;;4984653;28;20066;-80
2022/03/27 11:13:30;;;;;;;9.05;6.30;;;25.90;42.10;;;;;;4998574;28;20038;-81
2022/03/27 11:16:10;;;;;;;11.63;7.57;;;26.10;41.20;;;;;;4976776;28;20158;-80
2022/03/27 11:18:37;;;;;;;12.70;8.57;;;26.20;40.70;;;;;;4987772;28;20072;-81
2022/03/27 11:21:03;;;;;;;8.65;7.10;;;26.40;41.20;;;;;;4947420;28;20042;-79
2022/03/27 11:23:30;;;;;;;10.95;7.00;;;26.50;40.90;;;;;;4965248;28;20060;-80
2022/03/27 11:25:57;;;;;;;10.20;7.03;;;26.60;40.70;;;;;;4947275;28;20034;-80
2022/03/27 11:28:22;;;;;;;9.32;6.40;;;26.70;41.10;;;;;;4962436;28;20089;-80
2022/03/27 11:30:48;;;;;;;10.00;7.78;;;26.90;40.20;;;;;;4963003;28;20043;-80
2022/03/27 11:33:22;;;;;;;10.18;6.80;;;27.00;40.00;;;;;;4971435;28;20114;-81
2022/03/27 11:36:17;;;;;;;7.47;5.65;;;27.10;39.30;;;;;;4977803;28;20077;-80
2022/03/27 11:38:52;;;;;;;10.02;6.65;;;27.30;39.20;;;;;;4971684;28;20039;-81
2022/03/27 11:41:31;;;;;;;9.90;6.70;;;27.50;38.90;;;;;;4981747;28;20077;-80
2022/03/27 11:44:16;;;;;;;9.45;6.40;;;27.60;38.70;;;;;;4966395;28;20531;-80
2022/03/27 11:46:41;;;;;;;11.65;6.38;;;27.80;38.70;;;;;;4967689;28;20137;-80
2022/03/27 11:49:07;;;;;;;10.90;6.43;;;28.00;38.50;;;;;;4958565;28;20118;-81
2022/03/27 11:51:33;;;;;;;6.90;5.95;;;28.10;38.30;;;;;;4972724;28;20038;-81
2022/03/27 11:53:59;;;;;;;7.57;4.93;;;28.20;38.00;;;;;;4974199;28;20062;-80
2022/03/27 11:56:24;;;;;;;9.05;4.90;;;28.30;37.60;;;;;;4978316;28;20504;-81
2022/03/27 11:59:10;;;;;;;5.85;4.70;;;28.50;37.40;;;;;;4960823;28;20069;-80
2022/03/27 12:01:36;;;;;;;7.90;4.50;;;28.50;36.00;;;;;;4965739;28;20035;-80
2022/03/27 12:04:04;;;;;;;7.00;4.35;;;28.60;36.80;;;;;;4983698;28;20046;-81
2022/03/27 12:06:29;;;;;;;5.07;3.88;;;28.70;36.70;;;;;;4968513;28;20145;-80
2022/03/27 12:08:58;;;;;;;5.13;4.20;;;28.80;36.60;;;;;;4979449;28;20026;-81
2022/03/27 12:11:26;;;;;;;9.38;5.30;;;28.70;36.30;;;;;;4969196;28;20034;-81
2022/03/27 12:13:52;;;;;;;5.53;4.25;;;28.70;36.00;;;;;;4977495;28;20076;-80
2022/03/27 12:16:20;;;;;;;5.47;4.03;;;28.60;35.80;;;;;;4985473;28;20062;-80
2022/03/27 12:18:47;;;;;;;4.45;3.40;;;28.70;35.60;;;;;;4970077;28;20061;-80
2022/03/27 12:21:13;;;;;;;6.75;4.35;;;28.80;35.50;;;;;;4956721;28;20092;-80
2022/03/27 12:23:40;;;;;;;5.82;2.97;;;28.80;35.20;;;;;;4980487;28;20145;-80
2022/03/27 12:32:06;;;;;;;4.00;3.15;;;29.10;33.80;;;;;;4985772;28;20527;-80
2022/03/27 12:34:32;;;;;;;5.88;4.18;;;29.10;34.30;;;;;;4986064;28;20124;-80
2022/03/27 12:37:09;;;;;;;4.95;3.35;;;29.20;34.30;;;;;;4970061;28;20034;-82
2022/03/27 12:39:37;;;;;;;6.25;4.07;;;29.10;33.80;;;;;;4956139;28;20033;-81
2022/03/27 12:42:02;;;;;;;5.57;3.65;;;29.20;34.10;;;;;;4999525;28;20046;-80
2022/03/27 12:44:49;;;;;;;8.00;4.13;;;29.30;33.90;;;;;;4989111;28;20096;-80
2022/03/27 12:47:15;;;;;;;4.38;3.22;;;29.50;33.20;;;;;;5001500;28;20045;-79
2022/03/27 12:49:50;;;;;;;6.70;3.53;;;29.60;33.70;;;;;;4958725;28;20038;-80
2022/03/27 12:52:16;;;;;;;6.85;3.75;;;29.70;33.00;;;;;;4980023;28;20132;-81
2022/03/27 12:55:00;;;;;;;4.82;3.30;;;29.70;33.00;;;;;;4989265;28;20033;-81
2022/03/27 12:57:41;;;;;;;7.95;3.45;;;29.70;32.60;;;;;;4971188;28;20062;-80